createdAt,value
2018-01-14T00:00:22.938Z,1017.4
2018-01-14T00:00:49.031Z,1017.42
2018-01-14T00:01:15.140Z,1017.41
2018-01-14T00:01:41.255Z,1017.44
2018-01-14T00:02:07.365Z,1017.42
2018-01-14T00:02:33.462Z,1017.4
2018-01-14T00:02:59.568Z,1017.41
2018-01-14T00:03:25.666Z,1017.37
2018-01-14T00:03:51.767Z,1017.35
2018-01-14T00:04:17.866Z,1017.39
2018-01-14T00:04:43.969Z,1017.37
2018-01-14T00:05:10.080Z,1017.37
2018-01-14T00:05:36.178Z,1017.36
2018-01-14T00:06:02.295Z,1017.4
2018-01-14T00:06:28.386Z,1017.33
2018-01-14T00:06:54.487Z,1017.37
2018-01-14T00:07:20.587Z,1017.33
2018-01-14T00:07:46.696Z,1017.29
2018-01-14T00:08:12.801Z,1017.28
2018-01-14T00:08:38.900Z,1017.33
2018-01-14T00:09:05.004Z,1017.28
2018-01-14T00:09:31.099Z,1017.33
2018-01-14T00:09:57.222Z,1017.31
2018-01-14T00:10:23.322Z,1017.33
2018-01-14T00:10:49.417Z,1017.3
2018-01-14T00:11:15.522Z,1017.27
2018-01-14T00:11:41.627Z,1017.22
2018-01-14T00:12:07.727Z,1017.24
2018-01-14T00:12:33.826Z,1017.27
2018-01-14T00:12:59.940Z,1017.21
2018-01-14T00:13:26.034Z,1017.3
2018-01-14T00:13:52.139Z,1017.26
2018-01-14T00:14:18.243Z,1017.26
2018-01-14T00:14:44.333Z,1017.24
2018-01-14T00:15:10.439Z,1017.31
2018-01-14T00:15:36.535Z,1017.27
2018-01-14T00:16:02.641Z,1017.26
2018-01-14T00:16:28.747Z,1017.29
2018-01-14T00:16:54.845Z,1017.3
2018-01-14T00:17:20.956Z,1017.31
2018-01-14T00:17:47.057Z,1017.26
2018-01-14T00:18:13.152Z,1017.3
2018-01-14T00:18:39.255Z,1017.29
2018-01-14T00:19:05.354Z,1017.29
2018-01-14T00:19:31.463Z,1017.32
2018-01-14T00:19:57.567Z,1017.36
2018-01-14T00:20:23.691Z,1017.31
2018-01-14T00:20:49.790Z,1017.29
2018-01-14T00:21:15.896Z,1017.28
2018-01-14T00:21:41.988Z,1017.3
2018-01-14T00:22:08.092Z,1017.28
2018-01-14T00:22:34.196Z,1017.28
2018-01-14T00:23:00.296Z,1017.32
2018-01-14T00:23:26.394Z,1017.26
2018-01-14T00:23:52.496Z,1017.28
2018-01-14T00:24:18.604Z,1017.28
2018-01-14T00:24:44.702Z,1017.23
2018-01-14T00:25:10.808Z,1017.28
2018-01-14T00:25:36.916Z,1017.24
2018-01-14T00:26:03.009Z,1017.24
2018-01-14T00:26:29.110Z,1017.22
2018-01-14T00:26:55.216Z,1017.24
2018-01-14T00:27:21.319Z,1017.2
2018-01-14T00:27:47.418Z,1017.19
2018-01-14T00:28:13.543Z,1017.22
2018-01-14T00:28:39.644Z,1017.25
2018-01-14T00:29:05.801Z,1017.19
2018-01-14T00:29:31.846Z,1017.19
2018-01-14T00:29:57.947Z,1017.19
2018-01-14T00:30:24.062Z,1017.19
2018-01-14T00:30:50.167Z,1017.13
2018-01-14T00:31:16.279Z,1017.19
2018-01-14T00:31:42.387Z,1017.07
2018-01-14T00:32:08.502Z,1017.13
2018-01-14T00:32:34.609Z,1017.13
2018-01-14T00:33:00.748Z,1017.12
2018-01-14T00:33:26.831Z,1017.12
2018-01-14T00:33:52.930Z,1017.14
2018-01-14T00:34:19.036Z,1017.11
2018-01-14T00:34:45.133Z,1017.09
2018-01-14T00:35:11.232Z,1017.12
2018-01-14T00:35:37.338Z,1017.07
2018-01-14T00:36:03.435Z,1017.09
2018-01-14T00:36:29.555Z,1017.1
2018-01-14T00:36:55.660Z,1017.07
2018-01-14T00:37:21.761Z,1017.06
2018-01-14T00:37:47.860Z,1017.09
2018-01-14T00:38:13.961Z,1017.07
2018-01-14T00:38:40.063Z,1017.11
2018-01-14T00:39:06.165Z,1017.12
2018-01-14T00:39:32.270Z,1017.07
2018-01-14T00:39:58.370Z,1017.06
2018-01-14T00:40:24.540Z,1017.11
2018-01-14T00:40:50.666Z,1017.13
2018-01-14T00:41:16.777Z,1017.05
2018-01-14T00:41:42.886Z,1017.08
2018-01-14T00:42:09.002Z,1017.02
2018-01-14T00:42:35.100Z,1017.12
2018-01-14T00:43:01.210Z,1017.11
2018-01-14T00:43:27.325Z,1017.1
2018-01-14T00:43:53.431Z,1017.13
2018-01-14T00:44:19.612Z,1017.08
2018-01-14T00:44:45.660Z,1017.09
2018-01-14T00:45:11.773Z,1017.06
2018-01-14T00:45:37.898Z,1017.05
2018-01-14T00:46:03.992Z,1017.03
2018-01-14T00:46:30.094Z,1017.06
2018-01-14T00:46:56.203Z,1017.07
2018-01-14T00:47:22.310Z,1017.04
2018-01-14T00:47:48.406Z,1017.02
2018-01-14T00:48:14.530Z,1017.03
2018-01-14T00:48:40.629Z,1016.98
2018-01-14T00:49:06.726Z,1017.01
2018-01-14T00:49:32.832Z,1017.1
2018-01-14T00:49:58.935Z,1017.14
2018-01-14T00:50:25.035Z,1017.02
2018-01-14T00:50:51.132Z,1017.02
2018-01-14T00:51:17.237Z,1017.05
2018-01-14T00:51:43.335Z,1017.03
2018-01-14T00:52:09.440Z,1016.99
2018-01-14T00:52:35.539Z,1017
2018-01-14T00:53:01.642Z,1017.01
2018-01-14T00:53:27.744Z,1017
2018-01-14T00:53:53.840Z,1017
2018-01-14T00:54:19.967Z,1016.98
2018-01-14T00:54:46.065Z,1017.04
2018-01-14T00:55:12.162Z,1016.96
2018-01-14T00:55:38.268Z,1017.01
2018-01-14T00:56:04.367Z,1017.02
2018-01-14T00:56:30.475Z,1017
2018-01-14T00:56:56.577Z,1016.99
2018-01-14T00:57:22.675Z,1017
2018-01-14T00:57:48.781Z,1016.98
2018-01-14T00:58:14.937Z,1016.97
2018-01-14T00:58:40.983Z,1017.03
2018-01-14T00:59:07.086Z,1017.02
2018-01-14T00:59:33.187Z,1017.02
2018-01-14T00:59:59.287Z,1017.01
2018-01-14T01:00:25.380Z,1016.95
2018-01-14T01:00:51.488Z,1017
2018-01-14T01:01:17.589Z,1017
2018-01-14T01:01:43.687Z,1017.03
2018-01-14T01:02:09.802Z,1017.07
2018-01-14T01:02:35.903Z,1016.98
2018-01-14T01:03:02.007Z,1017
2018-01-14T01:03:28.105Z,1017.02
2018-01-14T01:03:54.207Z,1016.99
2018-01-14T01:04:20.321Z,1017.02
2018-01-14T01:04:46.426Z,1016.99
2018-01-14T01:05:12.548Z,1016.99
2018-01-14T01:05:38.648Z,1016.99
2018-01-14T01:06:04.753Z,1017.03
2018-01-14T01:06:30.851Z,1016.93
2018-01-14T01:06:56.954Z,1017.02
2018-01-14T01:07:23.050Z,1017.02
2018-01-14T01:07:49.154Z,1016.98
2018-01-14T01:08:15.263Z,1016.99
2018-01-14T01:08:41.358Z,1017
2018-01-14T01:09:07.462Z,1017
2018-01-14T01:09:33.557Z,1017
2018-01-14T01:09:59.656Z,1016.98
2018-01-14T01:10:25.781Z,1017
2018-01-14T01:10:51.878Z,1016.99
2018-01-14T01:11:17.983Z,1016.98
2018-01-14T01:11:44.089Z,1017.01
2018-01-14T01:12:10.187Z,1017
2018-01-14T01:12:36.293Z,1017
2018-01-14T01:13:02.389Z,1017.01
2018-01-14T01:13:28.490Z,1016.99
2018-01-14T01:13:54.593Z,1016.98
2018-01-14T01:14:20.692Z,1016.97
2018-01-14T01:14:46.798Z,1017.05
2018-01-14T01:15:12.898Z,1017
2018-01-14T01:15:39.002Z,1017.04
2018-01-14T01:16:05.106Z,1017.02
2018-01-14T01:16:31.206Z,1017
2018-01-14T01:16:57.302Z,1017.01
2018-01-14T01:17:23.406Z,1016.99
2018-01-14T01:17:49.510Z,1017.01
2018-01-14T01:18:15.606Z,1017.03
2018-01-14T01:18:41.729Z,1017.08
2018-01-14T01:19:07.833Z,1017
2018-01-14T01:19:33.938Z,1016.99
2018-01-14T01:20:00.043Z,1017.03
2018-01-14T01:20:26.155Z,1017.02
2018-01-14T01:20:52.257Z,1017.06
2018-01-14T01:21:18.359Z,1017.02
2018-01-14T01:21:44.457Z,1017.05
2018-01-14T01:22:10.554Z,1017.04
2018-01-14T01:22:36.657Z,1017.01
2018-01-14T01:23:02.756Z,1017.06
2018-01-14T01:23:28.863Z,1017.1
2018-01-14T01:23:54.967Z,1017.06
2018-01-14T01:24:21.088Z,1017.05
2018-01-14T01:24:47.191Z,1017.09
2018-01-14T01:25:13.292Z,1017.02
2018-01-14T01:25:39.401Z,1017.03
2018-01-14T01:26:05.501Z,1017.05
2018-01-14T01:26:31.595Z,1017.05
2018-01-14T01:26:58.301Z,1017.04
2018-01-14T01:27:24.405Z,1017.07
2018-01-14T01:27:50.504Z,1017.05
2018-01-14T01:28:16.604Z,1017.07
2018-01-14T01:28:42.709Z,1017.1
2018-01-14T01:29:08.812Z,1017
2018-01-14T01:29:34.911Z,1017.05
2018-01-14T01:30:01.035Z,1017.06
2018-01-14T01:30:27.136Z,1017.02
2018-01-14T01:30:53.258Z,1017.06
2018-01-14T01:31:19.355Z,1017.16
2018-01-14T01:31:45.455Z,1017.04
2018-01-14T01:32:11.560Z,1017.05
2018-01-14T01:32:37.659Z,1017.06
2018-01-14T01:33:03.761Z,1017.08
2018-01-14T01:33:29.864Z,1017.07
2018-01-14T01:33:55.967Z,1017.06
2018-01-14T01:34:22.068Z,1017.02
2018-01-14T01:34:48.173Z,1017.07
2018-01-14T01:35:14.275Z,1017.06
2018-01-14T01:35:40.380Z,1017.09
2018-01-14T01:36:06.474Z,1017.13
2018-01-14T01:36:32.574Z,1017.06
2018-01-14T01:36:58.673Z,1017.09
2018-01-14T01:37:24.782Z,1017.08
2018-01-14T01:37:50.877Z,1017.05
2018-01-14T01:38:16.981Z,1017.09
2018-01-14T01:38:43.082Z,1017.12
2018-01-14T01:39:09.186Z,1017.08
2018-01-14T01:39:35.290Z,1017.09
2018-01-14T01:40:01.391Z,1017.09
2018-01-14T01:40:27.484Z,1017.09
2018-01-14T01:40:53.588Z,1017.07
2018-01-14T01:41:19.686Z,1017.06
2018-01-14T01:41:45.784Z,1017.03
2018-01-14T01:42:11.889Z,1017.08
2018-01-14T01:42:38.006Z,1017.05
2018-01-14T01:43:04.098Z,1017.07
2018-01-14T01:43:30.195Z,1017.06
2018-01-14T01:43:56.299Z,1017
2018-01-14T01:44:22.395Z,1017.1
2018-01-14T01:44:48.497Z,1017.07
2018-01-14T01:45:14.619Z,1017.03
2018-01-14T01:45:40.716Z,1017.01
2018-01-14T01:46:06.823Z,1017
2018-01-14T01:46:32.925Z,1016.99
2018-01-14T01:46:59.024Z,1017.04
2018-01-14T01:47:25.128Z,1017.03
2018-01-14T01:47:51.229Z,1017.02
2018-01-14T01:48:17.351Z,1017.02
2018-01-14T01:48:43.451Z,1017.05
2018-01-14T01:49:09.552Z,1016.98
2018-01-14T01:49:35.664Z,1016.99
2018-01-14T01:50:01.765Z,1016.95
2018-01-14T01:50:27.889Z,1016.97
2018-01-14T01:50:53.989Z,1017
2018-01-14T01:51:20.094Z,1017.04
2018-01-14T01:51:46.197Z,1017.01
2018-01-14T01:52:12.293Z,1016.99
2018-01-14T01:52:38.396Z,1016.94
2018-01-14T01:53:04.497Z,1016.94
2018-01-14T01:53:30.595Z,1017
2018-01-14T01:53:56.693Z,1016.95
2018-01-14T01:54:22.797Z,1016.98
2018-01-14T01:54:48.897Z,1017.01
2018-01-14T01:55:14.995Z,1017.01
2018-01-14T01:55:41.102Z,1017.01
2018-01-14T01:56:07.202Z,1017.05
2018-01-14T01:56:33.306Z,1017.05
2018-01-14T01:56:59.406Z,1017.01
2018-01-14T01:57:25.508Z,1017.06
2018-01-14T01:57:51.611Z,1017
2018-01-14T01:58:17.708Z,1017.03
2018-01-14T01:58:43.814Z,1017.04
2018-01-14T01:59:09.918Z,1017.01
2018-01-14T01:59:36.023Z,1017.02
2018-01-14T02:00:02.117Z,1016.99
2018-01-14T02:00:28.210Z,1016.98
2018-01-14T02:00:54.315Z,1016.95
2018-01-14T02:01:20.413Z,1016.97
2018-01-14T02:01:46.523Z,1016.98
2018-01-14T02:02:12.624Z,1016.99
2018-01-14T02:02:38.720Z,1016.99
2018-01-14T02:03:04.823Z,1016.98
2018-01-14T02:03:30.924Z,1017
2018-01-14T02:03:57.025Z,1016.97
2018-01-14T02:04:23.127Z,1016.98
2018-01-14T02:04:49.232Z,1016.96
2018-01-14T02:05:15.333Z,1016.99
2018-01-14T02:05:41.429Z,1016.98
2018-01-14T02:06:07.536Z,1016.97
2018-01-14T02:06:33.637Z,1016.95
2018-01-14T02:06:59.732Z,1017.02
2018-01-14T02:07:25.834Z,1016.95
2018-01-14T02:07:51.939Z,1016.95
2018-01-14T02:08:18.056Z,1016.96
2018-01-14T02:08:44.160Z,1016.97
2018-01-14T02:09:10.280Z,1016.99
2018-01-14T02:09:36.379Z,1016.98
2018-01-14T02:10:02.475Z,1016.92
2018-01-14T02:10:28.582Z,1017
2018-01-14T02:10:54.679Z,1017.01
2018-01-14T02:11:20.799Z,1017
2018-01-14T02:11:46.889Z,1016.97
2018-01-14T02:12:12.986Z,1016.94
2018-01-14T02:12:39.089Z,1017.01
2018-01-14T02:13:05.188Z,1017.01
2018-01-14T02:13:31.302Z,1016.95
2018-01-14T02:13:57.409Z,1017.01
2018-01-14T02:14:23.506Z,1016.95
2018-01-14T02:14:49.629Z,1016.94
2018-01-14T02:15:15.750Z,1016.97
2018-01-14T02:15:41.847Z,1016.99
2018-01-14T02:16:07.951Z,1016.96
2018-01-14T02:16:34.047Z,1016.97
2018-01-14T02:17:00.203Z,1016.93
2018-01-14T02:17:26.252Z,1016.95
2018-01-14T02:17:52.349Z,1016.96
2018-01-14T02:18:18.459Z,1016.97
2018-01-14T02:18:44.561Z,1016.95
2018-01-14T02:19:10.661Z,1016.96
2018-01-14T02:19:36.758Z,1016.92
2018-01-14T02:20:02.861Z,1016.96
2018-01-14T02:20:28.957Z,1016.98
2018-01-14T02:20:55.061Z,1016.96
2018-01-14T02:21:21.162Z,1016.92
2018-01-14T02:21:47.265Z,1016.96
2018-01-14T02:22:13.361Z,1016.92
2018-01-14T02:22:39.473Z,1016.97
2018-01-14T02:23:05.580Z,1016.9
2018-01-14T02:23:31.677Z,1016.89
2018-01-14T02:23:57.770Z,1016.92
2018-01-14T02:24:23.912Z,1016.94
2018-01-14T02:24:49.975Z,1016.99
2018-01-14T02:25:16.065Z,1016.95
2018-01-14T02:25:42.171Z,1016.96
2018-01-14T02:26:08.270Z,1016.96
2018-01-14T02:26:34.375Z,1017
2018-01-14T02:27:00.475Z,1016.93
2018-01-14T02:27:26.573Z,1016.96
2018-01-14T02:27:52.679Z,1016.97
2018-01-14T02:28:18.776Z,1016.94
2018-01-14T02:28:44.880Z,1016.97
2018-01-14T02:29:10.983Z,1016.92
2018-01-14T02:29:37.100Z,1016.9
2018-01-14T02:30:03.199Z,1016.94
2018-01-14T02:30:29.321Z,1016.91
2018-01-14T02:30:55.423Z,1016.94
2018-01-14T02:31:21.519Z,1016.92
2018-01-14T02:31:47.626Z,1016.94
2018-01-14T02:32:13.729Z,1016.9
2018-01-14T02:32:39.832Z,1016.96
2018-01-14T02:33:05.932Z,1016.95
2018-01-14T02:33:32.031Z,1016.94
2018-01-14T02:33:58.139Z,1016.88
2018-01-14T02:34:24.260Z,1016.89
2018-01-14T02:34:50.359Z,1016.91
2018-01-14T02:35:16.467Z,1016.93
2018-01-14T02:35:42.583Z,1016.91
2018-01-14T02:36:08.677Z,1016.89
2018-01-14T02:36:34.780Z,1016.89
2018-01-14T02:37:00.890Z,1016.88
2018-01-14T02:37:26.980Z,1016.93
2018-01-14T02:37:53.082Z,1016.89
2018-01-14T02:38:19.189Z,1016.88
2018-01-14T02:38:45.286Z,1016.96
2018-01-14T02:39:11.392Z,1016.89
2018-01-14T02:39:37.496Z,1016.92
2018-01-14T02:40:03.598Z,1016.88
2018-01-14T02:40:29.696Z,1016.89
2018-01-14T02:40:55.822Z,1016.89
2018-01-14T02:41:21.925Z,1016.88
2018-01-14T02:41:48.026Z,1016.88
2018-01-14T02:42:14.131Z,1016.87
2018-01-14T02:42:40.243Z,1016.9
2018-01-14T02:43:06.343Z,1016.84
2018-01-14T02:43:32.464Z,1016.86
2018-01-14T02:43:58.548Z,1016.85
2018-01-14T02:44:24.646Z,1016.83
2018-01-14T02:44:50.751Z,1016.8
2018-01-14T02:45:16.848Z,1016.8
2018-01-14T02:45:42.955Z,1016.76
2018-01-14T02:46:09.054Z,1016.78
2018-01-14T02:46:35.219Z,1016.77
2018-01-14T02:47:01.271Z,1016.81
2018-01-14T02:47:27.377Z,1016.81
2018-01-14T02:47:53.477Z,1016.83
2018-01-14T02:48:19.570Z,1016.81
2018-01-14T02:48:45.674Z,1016.81
2018-01-14T02:49:11.771Z,1016.76
2018-01-14T02:49:37.880Z,1016.89
2018-01-14T02:50:04.000Z,1016.82
2018-01-14T02:50:30.098Z,1016.87
2018-01-14T02:50:56.200Z,1016.82
2018-01-14T02:51:22.298Z,1016.86
2018-01-14T02:51:48.414Z,1016.82
2018-01-14T02:52:14.532Z,1016.88
2018-01-14T02:52:40.655Z,1016.86
2018-01-14T02:53:06.759Z,1016.83
2018-01-14T02:53:32.860Z,1016.86
2018-01-14T02:53:58.953Z,1016.88
2018-01-14T02:54:25.052Z,1016.86
2018-01-14T02:54:51.159Z,1016.85
2018-01-14T02:55:17.260Z,1016.84
2018-01-14T02:55:43.360Z,1016.85
2018-01-14T02:56:09.459Z,1016.88
2018-01-14T02:56:35.561Z,1016.84
2018-01-14T02:57:01.664Z,1016.84
2018-01-14T02:57:27.769Z,1016.88
2018-01-14T02:57:53.869Z,1016.86
2018-01-14T02:58:19.969Z,1016.88
2018-01-14T02:58:46.074Z,1016.89
2018-01-14T02:59:12.170Z,1016.91
2018-01-14T02:59:38.264Z,1016.87
2018-01-14T03:00:04.373Z,1016.86
2018-01-14T03:00:30.472Z,1016.94
2018-01-14T03:00:56.578Z,1016.89
2018-01-14T03:01:22.679Z,1016.92
2018-01-14T03:01:48.775Z,1016.88
2018-01-14T03:02:14.875Z,1016.87
2018-01-14T03:02:40.981Z,1016.87
2018-01-14T03:03:07.085Z,1016.9
2018-01-14T03:03:33.184Z,1016.86
2018-01-14T03:03:59.327Z,1016.86
2018-01-14T03:04:25.402Z,1016.88
2018-01-14T03:04:51.507Z,1016.89
2018-01-14T03:05:17.602Z,1016.88
2018-01-14T03:05:43.701Z,1016.83
2018-01-14T03:06:09.807Z,1016.91
2018-01-14T03:06:35.907Z,1016.9
2018-01-14T03:07:02.006Z,1016.89
2018-01-14T03:07:28.105Z,1016.9
2018-01-14T03:07:54.215Z,1016.88
2018-01-14T03:08:20.316Z,1016.92
2018-01-14T03:08:46.430Z,1016.94
2018-01-14T03:09:12.552Z,1016.87
2018-01-14T03:09:38.649Z,1016.87
2018-01-14T03:10:04.772Z,1016.9
2018-01-14T03:10:30.869Z,1016.93
2018-01-14T03:10:56.971Z,1016.9
2018-01-14T03:11:23.078Z,1016.95
2018-01-14T03:11:49.181Z,1016.96
2018-01-14T03:12:15.274Z,1016.95
2018-01-14T03:12:41.379Z,1016.94
2018-01-14T03:13:07.476Z,1016.96
2018-01-14T03:13:33.576Z,1016.95
2018-01-14T03:13:59.679Z,1016.91
2018-01-14T03:14:25.783Z,1016.97
2018-01-14T03:14:51.880Z,1016.94
2018-01-14T03:15:17.982Z,1016.92
2018-01-14T03:15:44.080Z,1016.95
2018-01-14T03:16:10.185Z,1016.99
2018-01-14T03:16:36.291Z,1016.99
2018-01-14T03:17:02.385Z,1016.98
2018-01-14T03:17:28.488Z,1016.9
2018-01-14T03:17:54.592Z,1016.89
2018-01-14T03:18:20.696Z,1016.93
2018-01-14T03:18:46.795Z,1016.84
2018-01-14T03:19:12.893Z,1016.9
2018-01-14T03:19:38.995Z,1016.85
2018-01-14T03:20:05.096Z,1016.89
2018-01-14T03:20:31.200Z,1016.88
2018-01-14T03:20:57.300Z,1016.85
2018-01-14T03:21:23.405Z,1016.85
2018-01-14T03:21:49.504Z,1016.86
2018-01-14T03:22:15.620Z,1016.83
2018-01-14T03:22:41.726Z,1016.86
2018-01-14T03:23:07.822Z,1016.81
2018-01-14T03:23:33.932Z,1016.82
2018-01-14T03:24:00.029Z,1016.79
2018-01-14T03:24:26.144Z,1016.83
2018-01-14T03:24:52.252Z,1016.73
2018-01-14T03:25:18.367Z,1016.75
2018-01-14T03:25:44.472Z,1016.74
2018-01-14T03:26:10.577Z,1016.76
2018-01-14T03:26:36.666Z,1016.78
2018-01-14T03:27:02.774Z,1016.77
2018-01-14T03:27:28.876Z,1016.75
2018-01-14T03:27:54.990Z,1016.74
2018-01-14T03:28:21.089Z,1016.79
2018-01-14T03:28:47.193Z,1016.73
2018-01-14T03:29:13.294Z,1016.73
2018-01-14T03:29:39.392Z,1016.7
2018-01-14T03:30:05.499Z,1016.76
2018-01-14T03:30:31.596Z,1016.73
2018-01-14T03:30:57.694Z,1016.67
2018-01-14T03:31:23.798Z,1016.71
2018-01-14T03:31:49.917Z,1016.73
2018-01-14T03:32:16.019Z,1016.69
2018-01-14T03:32:42.124Z,1016.73
2018-01-14T03:33:08.221Z,1016.76
2018-01-14T03:33:34.321Z,1016.72
2018-01-14T03:34:00.423Z,1016.75
2018-01-14T03:34:26.521Z,1016.7
2018-01-14T03:34:52.625Z,1016.74
2018-01-14T03:35:18.725Z,1016.74
2018-01-14T03:35:44.823Z,1016.71
2018-01-14T03:36:10.930Z,1016.71
2018-01-14T03:36:37.028Z,1016.72
2018-01-14T03:37:03.150Z,1016.75
2018-01-14T03:37:29.254Z,1016.72
2018-01-14T03:37:55.350Z,1016.73
2018-01-14T03:38:21.454Z,1016.7
2018-01-14T03:38:47.557Z,1016.7
2018-01-14T03:39:13.652Z,1016.7
2018-01-14T03:39:39.757Z,1016.7
2018-01-14T03:40:05.861Z,1016.71
2018-01-14T03:40:31.965Z,1016.68
2018-01-14T03:40:58.070Z,1016.71
2018-01-14T03:41:24.190Z,1016.78
2018-01-14T03:41:50.285Z,1016.66
2018-01-14T03:42:16.386Z,1016.65
2018-01-14T03:42:42.491Z,1016.67
2018-01-14T03:43:08.587Z,1016.64
2018-01-14T03:43:34.690Z,1016.65
2018-01-14T03:44:00.798Z,1016.57
2018-01-14T03:44:26.912Z,1016.61
2018-01-14T03:44:53.009Z,1016.63
2018-01-14T03:45:19.112Z,1016.61
2018-01-14T03:45:45.210Z,1016.63
2018-01-14T03:46:11.315Z,1016.63
2018-01-14T03:46:37.420Z,1016.63
2018-01-14T03:47:03.536Z,1016.64
2018-01-14T03:47:29.637Z,1016.64
2018-01-14T03:47:55.741Z,1016.66
2018-01-14T03:48:21.847Z,1016.62
2018-01-14T03:48:47.939Z,1016.64
2018-01-14T03:49:14.044Z,1016.64
2018-01-14T03:49:40.142Z,1016.68
2018-01-14T03:50:06.249Z,1016.65
2018-01-14T03:50:32.345Z,1016.66
2018-01-14T03:50:58.441Z,1016.68
2018-01-14T03:51:24.548Z,1016.64
2018-01-14T03:51:50.642Z,1016.69
2018-01-14T03:52:16.747Z,1016.67
2018-01-14T03:52:42.847Z,1016.69
2018-01-14T03:53:08.949Z,1016.7
2018-01-14T03:53:35.057Z,1016.7
2018-01-14T03:54:01.155Z,1016.66
2018-01-14T03:54:27.256Z,1016.67
2018-01-14T03:54:53.361Z,1016.67
2018-01-14T03:55:19.460Z,1016.66
2018-01-14T03:55:45.560Z,1016.68
2018-01-14T03:56:11.660Z,1016.66
2018-01-14T03:56:37.758Z,1016.67
2018-01-14T03:57:03.856Z,1016.68
2018-01-14T03:57:29.959Z,1016.71
2018-01-14T03:57:56.064Z,1016.69
2018-01-14T03:58:22.160Z,1016.67
2018-01-14T03:58:48.276Z,1016.68
2018-01-14T03:59:14.397Z,1016.74
2018-01-14T03:59:40.502Z,1016.69
2018-01-14T04:00:06.598Z,1016.68
2018-01-14T04:00:32.711Z,1016.68
2018-01-14T04:00:58.805Z,1016.71
2018-01-14T04:01:24.909Z,1016.7
2018-01-14T04:01:51.015Z,1016.7
2018-01-14T04:02:17.111Z,1016.65
2018-01-14T04:02:43.216Z,1016.67
2018-01-14T04:03:09.312Z,1016.63
2018-01-14T04:03:35.410Z,1016.64
2018-01-14T04:04:01.519Z,1016.73
2018-01-14T04:04:27.620Z,1016.64
2018-01-14T04:04:53.726Z,1016.61
2018-01-14T04:05:19.819Z,1016.64
2018-01-14T04:05:45.917Z,1016.55
2018-01-14T04:06:12.023Z,1016.63
2018-01-14T04:06:38.128Z,1016.64
2018-01-14T04:07:04.263Z,1016.63
2018-01-14T04:07:30.367Z,1016.66
2018-01-14T04:07:56.466Z,1016.63
2018-01-14T04:08:22.565Z,1016.61
2018-01-14T04:08:48.668Z,1016.63
2018-01-14T04:09:14.765Z,1016.63
2018-01-14T04:09:40.871Z,1016.63
2018-01-14T04:10:06.983Z,1016.62
2018-01-14T04:10:33.088Z,1016.66
2018-01-14T04:10:59.184Z,1016.62
2018-01-14T04:11:25.289Z,1016.73
2018-01-14T04:11:51.392Z,1016.63
2018-01-14T04:12:17.491Z,1016.63
2018-01-14T04:12:43.601Z,1016.65
2018-01-14T04:13:09.696Z,1016.62
2018-01-14T04:13:35.800Z,1016.63
2018-01-14T04:14:01.899Z,1016.64
2018-01-14T04:14:28.001Z,1016.67
2018-01-14T04:14:54.097Z,1016.63
2018-01-14T04:15:20.199Z,1016.68
2018-01-14T04:15:46.322Z,1016.66
2018-01-14T04:16:12.445Z,1016.64
2018-01-14T04:16:38.560Z,1016.69
2018-01-14T04:17:04.657Z,1016.69
2018-01-14T04:17:30.763Z,1016.68
2018-01-14T04:17:56.860Z,1016.63
2018-01-14T04:18:22.972Z,1016.66
2018-01-14T04:18:49.066Z,1016.7
2018-01-14T04:19:15.173Z,1016.67
2018-01-14T04:19:41.271Z,1016.64
2018-01-14T04:20:07.375Z,1016.67
2018-01-14T04:20:33.478Z,1016.64
2018-01-14T04:20:59.571Z,1016.66
2018-01-14T04:21:25.677Z,1016.69
2018-01-14T04:21:51.772Z,1016.6
2018-01-14T04:22:17.868Z,1016.63
2018-01-14T04:22:43.970Z,1016.61
2018-01-14T04:23:10.071Z,1016.65
2018-01-14T04:23:36.174Z,1016.66
2018-01-14T04:24:02.279Z,1016.64
2018-01-14T04:24:28.380Z,1016.62
2018-01-14T04:24:54.478Z,1016.62
2018-01-14T04:25:20.580Z,1016.6
2018-01-14T04:25:46.680Z,1016.63
2018-01-14T04:26:12.786Z,1016.59
2018-01-14T04:26:38.877Z,1016.6
2018-01-14T04:27:04.982Z,1016.61
2018-01-14T04:27:31.084Z,1016.65
2018-01-14T04:27:57.184Z,1016.68
2018-01-14T04:28:23.287Z,1016.6
2018-01-14T04:28:49.383Z,1016.68
2018-01-14T04:29:15.483Z,1016.61
2018-01-14T04:29:41.588Z,1016.6
2018-01-14T04:30:07.709Z,1016.68
2018-01-14T04:30:33.806Z,1016.66
2018-01-14T04:30:59.902Z,1016.69
2018-01-14T04:31:26.007Z,1016.67
2018-01-14T04:31:52.107Z,1016.67
2018-01-14T04:32:18.206Z,1016.61
2018-01-14T04:32:44.310Z,1016.63
2018-01-14T04:33:10.407Z,1016.62
2018-01-14T04:33:36.514Z,1016.63
2018-01-14T04:34:02.609Z,1016.65
2018-01-14T04:34:28.707Z,1016.66
2018-01-14T04:34:54.813Z,1016.63
2018-01-14T04:35:20.911Z,1016.67
2018-01-14T04:35:47.033Z,1016.66
2018-01-14T04:36:13.129Z,1016.65
2018-01-14T04:36:39.235Z,1016.71
2018-01-14T04:37:05.338Z,1016.66
2018-01-14T04:37:31.435Z,1016.68
2018-01-14T04:37:57.540Z,1016.67
2018-01-14T04:38:23.639Z,1016.7
2018-01-14T04:38:49.742Z,1016.67
2018-01-14T04:39:15.837Z,1016.74
2018-01-14T04:39:41.947Z,1016.73
2018-01-14T04:40:08.043Z,1016.69
2018-01-14T04:40:34.139Z,1016.65
2018-01-14T04:41:00.245Z,1016.69
2018-01-14T04:41:26.346Z,1016.72
2018-01-14T04:41:52.450Z,1016.65
2018-01-14T04:42:18.549Z,1016.68
2018-01-14T04:42:44.647Z,1016.66
2018-01-14T04:43:10.756Z,1016.67
2018-01-14T04:43:36.856Z,1016.63
2018-01-14T04:44:02.955Z,1016.64
2018-01-14T04:44:29.053Z,1016.64
2018-01-14T04:44:55.157Z,1016.58
2018-01-14T04:45:21.261Z,1016.59
2018-01-14T04:45:47.361Z,1016.62
2018-01-14T04:46:13.459Z,1016.57
2018-01-14T04:46:39.566Z,1016.65
2018-01-14T04:47:05.663Z,1016.54
2018-01-14T04:47:31.757Z,1016.53
2018-01-14T04:47:57.859Z,1016.51
2018-01-14T04:48:23.956Z,1016.5
2018-01-14T04:48:50.062Z,1016.58
2018-01-14T04:49:16.188Z,1016.5
2018-01-14T04:49:42.284Z,1016.5
2018-01-14T04:50:08.388Z,1016.54
2018-01-14T04:50:34.492Z,1016.52
2018-01-14T04:51:00.604Z,1016.49
2018-01-14T04:51:26.707Z,1016.5
2018-01-14T04:51:52.808Z,1016.52
2018-01-14T04:52:18.909Z,1016.54
2018-01-14T04:52:45.014Z,1016.56
2018-01-14T04:53:11.136Z,1016.58
2018-01-14T04:53:37.246Z,1016.56
2018-01-14T04:54:03.352Z,1016.51
2018-01-14T04:54:29.450Z,1016.61
2018-01-14T04:54:55.552Z,1016.53
2018-01-14T04:55:21.651Z,1016.61
2018-01-14T04:55:47.752Z,1016.61
2018-01-14T04:56:13.851Z,1016.59
2018-01-14T04:56:39.958Z,1016.54
2018-01-14T04:57:06.061Z,1016.54
2018-01-14T04:57:32.157Z,1016.54
2018-01-14T04:57:58.262Z,1016.51
2018-01-14T04:58:24.359Z,1016.58
2018-01-14T04:58:50.460Z,1016.54
2018-01-14T04:59:16.564Z,1016.55
2018-01-14T04:59:42.668Z,1016.56
2018-01-14T05:00:08.764Z,1016.57
2018-01-14T05:00:34.867Z,1016.6
2018-01-14T05:01:00.973Z,1016.55
2018-01-14T05:01:27.069Z,1016.55
2018-01-14T05:01:53.174Z,1016.56
2018-01-14T05:02:19.270Z,1016.57
2018-01-14T05:02:45.378Z,1016.57
2018-01-14T05:03:11.474Z,1016.58
2018-01-14T05:03:37.584Z,1016.6
2018-01-14T05:04:03.688Z,1016.67
2018-01-14T05:04:29.785Z,1016.63
2018-01-14T05:04:55.888Z,1016.61
2018-01-14T05:05:21.992Z,1016.59
2018-01-14T05:05:48.111Z,1016.57
2018-01-14T05:06:14.211Z,1016.58
2018-01-14T05:06:40.307Z,1016.58
2018-01-14T05:07:06.411Z,1016.59
2018-01-14T05:07:32.508Z,1016.59
2018-01-14T05:07:58.605Z,1016.56
2018-01-14T05:08:24.702Z,1016.59
2018-01-14T05:08:50.809Z,1016.59
2018-01-14T05:09:16.913Z,1016.57
2018-01-14T05:09:43.017Z,1016.58
2018-01-14T05:10:09.141Z,1016.59
2018-01-14T05:10:35.231Z,1016.56
2018-01-14T05:11:01.348Z,1016.6
2018-01-14T05:11:27.443Z,1016.57
2018-01-14T05:11:53.552Z,1016.6
2018-01-14T05:12:19.654Z,1016.59
2018-01-14T05:12:45.757Z,1016.62
2018-01-14T05:13:11.848Z,1016.66
2018-01-14T05:13:37.955Z,1016.61
2018-01-14T05:14:04.050Z,1016.63
2018-01-14T05:14:30.150Z,1016.62
2018-01-14T05:14:56.254Z,1016.61
2018-01-14T05:15:22.354Z,1016.64
2018-01-14T05:15:48.500Z,1016.57
2018-01-14T05:16:14.596Z,1016.62
2018-01-14T05:16:40.698Z,1016.62
2018-01-14T05:17:06.805Z,1016.63
2018-01-14T05:17:32.902Z,1016.6